Time;durP1;ratioP1;P1;durP2;ratioP2;P2;SDS_P1;SDS_P2;PMS_P1;PMS_P2;Temp;Humidity;BMP_temperature;BMP_pressure;BME280_temperature;BME280_humidity;BME280_pressure;Samples;Min_cycle;Max_cycle;Signal;HPM_P1;HPM_P2
2022/08/08 00:01:16;;;;;;;9.07;4.53;;;;;;;;;;5046780;28;20175;-71
2022/08/08 00:04:02;;;;;;;10.65;5.22;;;;;;;;;;5045823;28;20078;-71
2022/08/08 00:06:34;;;;;;;9.07;4.93;;;;;;;;;;5044636;28;20045;-70
2022/08/08 00:09:00;;;;;;;;;;;;;;;;;;5039081;28;20533;-72
2022/08/08 00:11:42;;;;;;;7.65;4.90;;;;;;;;;;5041703;28;19916;-72
2022/08/08 00:14:28;;;;;;;9.18;4.40;;;;;;;;;;5048039;28;20024;-72
2022/08/08 00:17:13;;;;;;;13.40;5.03;;;;;;;;;;5036572;28;20041;-72
2022/08/08 00:19:44;;;;;;;7.40;4.80;;;;;;;;;;5027829;28;20199;-72
2022/08/08 00:22:14;;;;;;;7.97;4.90;;;;;;;;;;5046249;28;20029;-72
2022/08/08 00:24:45;;;;;;;8.23;4.40;;;;;;;;;;5049198;28;20082;-72
2022/08/08 00:27:13;;;;;;;8.50;4.72;;;;;;;;;;5043039;28;20183;-73
2022/08/08 00:30:05;;;;;;;10.40;4.20;;;;;;;;;;5033491;28;20049;-71
2022/08/08 00:32:33;;;;;;;10.85;5.35;;;;;;;;;;5026736;28;20114;-71
2022/08/08 00:35:13;;;;;;;9.18;4.65;;;;;;;;;;5023802;28;20128;-71
2022/08/08 00:37:43;;;;;;;11.02;4.32;;;;;;;;;;5044902;28;20086;-71
2022/08/08 00:40:29;;;;;;;9.70;4.72;;;;;;;;;;5090661;28;20039;-71
2022/08/08 00:42:55;;;;;;;9.70;4.65;;;;;;;;;;5001690;28;20038;-71
2022/08/08 00:45:42;;;;;;;8.40;4.93;;;;;;;;;;4995042;28;20037;-71
2022/08/08 00:48:17;;;;;;;9.85;5.15;;;;;;;;;;4988604;28;20069;-71
2022/08/08 00:50:46;;;;;;;9.50;5.18;;;;;;;;;;5004102;28;20202;-71
2022/08/08 00:53:39;;;;;;;8.65;4.70;;;;;;;;;;4974640;28;20448;-71
2022/08/08 00:56:08;;;;;;;10.70;5.00;;;;;;;;;;4948612;28;20039;-72
2022/08/08 00:58:44;;;;;;;7.13;4.20;;;;;;;;;;4933384;29;20520;-72
2022/08/08 01:01:13;;;;;;;5.93;4.25;;;;;;;;;;4932640;29;20043;-71
2022/08/08 01:03:46;;;;;;;8.18;4.47;;;;;;;;;;4949324;28;20195;-71
2022/08/08 01:06:20;;;;;;;8.43;5.13;;;;;;;;;;4930615;28;20043;-70
2022/08/08 01:08:55;;;;;;;9.20;5.03;;;;;;;;;;4948619;28;20027;-70
2022/08/08 01:12:01;;;;;;;8.30;5.00;;;;;;;;;;4932040;29;20031;-70
2022/08/08 01:14:27;;;;;;;7.43;4.53;;;;;;;;;;4898263;29;20040;-70
2022/08/08 01:16:56;;;;;;;10.77;5.20;;;;;;;;;;4877704;29;20521;-70
2022/08/08 01:19:41;;;;;;;9.75;4.75;;;;;;;;;;4897974;29;20040;-70
2022/08/08 01:22:08;;;;;;;10.65;5.55;;;;;;;;;;4925552;29;20096;-70
2022/08/08 01:24:54;;;;;;;10.50;5.22;;;;;;;;;;4926466;29;20043;-70
2022/08/08 01:27:41;;;;;;;7.18;4.80;;;;;;;;;;4927866;29;20067;-71
2022/08/08 01:30:26;;;;;;;7.32;4.63;;;;;;;;;;4928531;29;20397;-70
2022/08/08 01:33:00;;;;;;;15.38;5.20;;;;;;;;;;4968267;28;20046;-70
2022/08/08 01:35:28;;;;;;;9.07;5.15;;;;;;;;;;4975825;28;20022;-72
2022/08/08 01:37:57;;;;;;;9.85;4.93;;;;;;;;;;4995781;28;20415;-71
2022/08/08 01:40:33;;;;;;;6.40;4.47;;;;;;;;;;4960601;28;20418;-71
2022/08/08 01:43:20;;;;;;;9.20;4.68;;;;;;;;;;4988556;28;20541;-71
2022/08/08 01:46:05;;;;;;;15.40;5.30;;;;;;;;;;5019469;28;20390;-71
2022/08/08 01:48:47;;;;;;;12.23;4.93;;;;;;;;;;5062711;28;20033;-71
2022/08/08 01:51:32;;;;;;;8.88;4.45;;;;;;;;;;5049551;28;20025;-72
2022/08/08 01:54:02;;;;;;;8.35;5.30;;;;;;;;;;5044880;28;20037;-71
2022/08/08 01:56:52;;;;;;;11.05;4.97;;;;;;;;;;5061493;28;20035;-71
2022/08/08 01:59:30;;;;;;;10.02;4.57;;;;;;;;;;5053911;28;20427;-71
2022/08/08 02:02:08;;;;;;;8.63;4.70;;;;;;;;;;5046200;28;20504;-71
2022/08/08 02:04:53;;;;;;;8.35;4.88;;;;;;;;;;5046329;28;20032;-71
2022/08/08 02:07:39;;;;;;;9.43;4.63;;;;;;;;;;5038092;28;20052;-69
2022/08/08 02:10:27;;;;;;;8.10;4.30;;;;;;;;;;5037775;28;20093;-69
2022/08/08 02:12:59;;;;;;;7.63;5.03;;;;;;;;;;5030877;28;20030;-70
2022/08/08 02:15:34;;;;;;;9.55;4.30;;;;;;;;;;5036873;28;20048;-70
2022/08/08 02:18:00;;;;;;;8.65;5.32;;;;;;;;;;5035581;28;20119;-70
2022/08/08 02:20:29;;;;;;;9.35;4.72;;;;;;;;;;5048243;28;20029;-70
2022/08/08 02:22:55;;;;;;;7.57;4.85;;;;;;;;;;5045788;28;20037;-70
2022/08/08 02:25:42;;;;;;;8.85;5.25;;;;;;;;;;5053544;28;20389;-70
2022/08/08 02:28:31;;;;;;;5.82;4.40;;;;;;;;;;5043001;28;20025;-70
2022/08/08 02:31:04;;;;;;;13.77;5.85;;;;;;;;;;5053408;28;20022;-70
2022/08/08 02:33:53;;;;;;;13.45;4.72;;;;;;;;;;5032901;28;20586;-70
2022/08/08 02:36:28;;;;;;;10.15;4.28;;;;;;;;;;5043829;28;20739;-70
2022/08/08 02:38:55;;;;;;;11.55;5.32;;;;;;;;;;5045296;28;20083;-70
2022/08/08 02:41:24;;;;;;;7.47;4.50;;;;;;;;;;5053450;28;20044;-69
2022/08/08 02:44:03;;;;;;;7.93;4.53;;;;;;;;;;5048175;28;20029;-72
2022/08/08 02:46:42;;;;;;;8.70;4.40;;;;;;;;;;5056267;28;20572;-70
2022/08/08 02:49:08;;;;;;;5.07;3.92;;;;;;;;;;5047816;28;20125;-71
2022/08/08 02:51:35;;;;;;;9.13;4.55;;;;;;;;;;5042765;28;20034;-71
2022/08/08 02:54:34;;;;;;;7.10;4.43;;;;;;;;;;5044829;28;20039;-71
2022/08/08 02:57:15;;;;;;;6.63;4.25;;;;;;;;;;4990878;28;20118;-70
2022/08/08 03:00:00;;;;;;;9.18;4.55;;;;;;;;;;4975542;28;20065;-67
2022/08/08 03:02:44;;;;;;;7.28;4.82;;;;;;;;;;5005262;28;20033;-67
2022/08/08 03:05:10;;;;;;;9.38;4.95;;;;;;;;;;4979394;28;20062;-67
2022/08/08 03:07:55;;;;;;;7.28;4.18;;;;;;;;;;4988313;28;20034;-70
2022/08/08 03:10:41;;;;;;;6.40;4.03;;;;;;;;;;4981094;28;20124;-71
2022/08/08 03:13:25;;;;;;;8.57;4.30;;;;;;;;;;4999874;28;20080;-71
2022/08/08 03:16:27;;;;;;;8.52;4.80;;;;;;;;;;5003194;28;20041;-71
2022/08/08 03:18:55;;;;;;;8.82;4.75;;;;;;;;;;4945694;28;20147;-71
2022/08/08 03:21:23;;;;;;;8.50;4.72;;;;;;;;;;4963923;28;20042;-71
2022/08/08 03:23:50;;;;;;;10.43;4.55;;;;;;;;;;4962393;28;20031;-71
2022/08/08 03:26:25;;;;;;;8.73;4.90;;;;;;;;;;4961493;28;20036;-71
2022/08/08 03:28:58;;;;;;;8.73;4.70;;;;;;;;;;4956756;28;20027;-71
2022/08/08 03:34:12;;;;;;;7.07;4.70;;;;;;;;;;5006393;28;20041;-70
2022/08/08 03:36:42;;;;;;;8.65;4.28;;;;;;;;;;5007009;28;20523;-70
2022/08/08 03:39:12;;;;;;;8.23;4.20;;;;;;;;;;4988159;28;20042;-70
2022/08/08 03:41:38;;;;;;;7.85;4.35;;;;;;;;;;5004315;28;20030;-71
2022/08/08 03:44:06;;;;;;;8.35;4.30;;;;;;;;;;5004687;28;20026;-71
2022/08/08 03:46:43;;;;;;;7.53;4.47;;;;;;;;;;5006268;28;20034;-70
2022/08/08 03:49:18;;;;;;;7.35;4.35;;;;;;;;;;5008209;28;20030;-70
2022/08/08 03:51:45;;;;;;;9.43;4.45;;;;;;;;;;5009923;28;20026;-70
2022/08/08 03:54:11;;;;;;;7.90;5.03;;;;;;;;;;5066454;28;20029;-71
2022/08/08 03:56:38;;;;;;;9.90;4.22;;;;;;;;;;5070878;28;20036;-71
2022/08/08 03:59:05;;;;;;;8.60;4.45;;;;;;;;;;5071424;28;20021;-71
2022/08/08 04:01:35;;;;;;;7.00;4.40;;;;;;;;;;5063095;28;20028;-71
2022/08/08 04:04:01;;;;;;;6.38;4.13;;;;;;;;;;5068432;28;20123;-71
2022/08/08 04:06:38;;;;;;;9.35;5.05;;;;;;;;;;5069639;28;20112;-71
2022/08/08 04:09:07;;;;;;;6.32;4.30;;;;;;;;;;5068826;28;20024;-71
2022/08/08 04:11:38;;;;;;;7.28;4.68;;;;;;;;;;5066466;28;20373;-71
2022/08/08 04:14:05;;;;;;;8.07;4.82;;;;;;;;;;5085424;28;20039;-71
2022/08/08 04:16:33;;;;;;;7.03;4.93;;;;;;;;;;5069466;28;20234;-71
2022/08/08 04:18:59;;;;;;;7.93;4.60;;;;;;;;;;5071000;28;20035;-68
2022/08/08 04:21:25;;;;;;;7.88;4.63;;;;;;;;;;5068856;28;20024;-68
2022/08/08 04:23:56;;;;;;;7.68;4.47;;;;;;;;;;5072251;28;20058;-71
2022/08/08 04:26:22;;;;;;;8.18;4.25;;;;;;;;;;5081641;28;20043;-72
2022/08/08 04:28:48;;;;;;;9.15;4.65;;;;;;;;;;5075523;28;20399;-72
2022/08/08 04:31:15;;;;;;;8.63;5.25;;;;;;;;;;5072618;28;20031;-72
2022/08/08 04:33:42;;;;;;;8.32;5.15;;;;;;;;;;5072939;28;20028;-71
2022/08/08 04:36:10;;;;;;;9.73;5.03;;;;;;;;;;5069827;28;20039;-70
2022/08/08 04:38:36;;;;;;;12.38;4.57;;;;;;;;;;5073293;28;20504;-70
2022/08/08 04:41:03;;;;;;;7.72;5.22;;;;;;;;;;5073610;28;20038;-70
2022/08/08 04:43:29;;;;;;;7.18;4.50;;;;;;;;;;5092125;28;20488;-68
2022/08/08 04:45:56;;;;;;;8.35;4.40;;;;;;;;;;5072538;28;20032;-70
2022/08/08 04:48:23;;;;;;;8.77;4.97;;;;;;;;;;5072452;28;20384;-68
2022/08/08 04:50:49;;;;;;;8.98;4.55;;;;;;;;;;5086939;28;20392;-68
2022/08/08 04:53:20;;;;;;;10.30;4.40;;;;;;;;;;5070677;28;20051;-68
2022/08/08 04:55:48;;;;;;;7.10;4.35;;;;;;;;;;5064921;28;20094;-68
2022/08/08 04:58:16;;;;;;;10.70;4.65;;;;;;;;;;5065767;28;20436;-69
2022/08/08 05:00:43;;;;;;;9.80;4.45;;;;;;;;;;5079263;28;20023;-69
2022/08/08 05:03:09;;;;;;;6.60;4.72;;;;;;;;;;5082217;28;20051;-70
2022/08/08 05:05:36;;;;;;;7.22;4.28;;;;;;;;;;5073659;28;20099;-71
2022/08/08 05:08:03;;;;;;;10.38;4.88;;;;;;;;;;5058198;28;20541;-71
2022/08/08 05:10:29;;;;;;;7.13;4.38;;;;;;;;;;5064525;28;20025;-72
2022/08/08 05:12:58;;;;;;;9.63;4.65;;;;;;;;;;5065095;28;20016;-70
2022/08/08 05:15:24;;;;;;;7.20;4.82;;;;;;;;;;5088165;28;20140;-68
2022/08/08 05:17:51;;;;;;;7.68;4.53;;;;;;;;;;5071314;28;20024;-68
2022/08/08 05:20:17;;;;;;;9.93;4.55;;;;;;;;;;5072240;28;20432;-72
2022/08/08 05:22:44;;;;;;;13.05;4.40;;;;;;;;;;5066764;28;20013;-72
2022/08/08 05:25:11;;;;;;;7.07;4.97;;;;;;;;;;5071840;28;20089;-72
2022/08/08 05:27:37;;;;;;;12.57;4.97;;;;;;;;;;5072397;28;20015;-72
2022/08/08 05:30:05;;;;;;;8.80;4.93;;;;;;;;;;5068175;28;20031;-72
2022/08/08 05:32:38;;;;;;;7.70;4.70;;;;;;;;;;5070648;28;20461;-70
2022/08/08 05:35:08;;;;;;;16.27;5.40;;;;;;;;;;5071130;28;20023;-71
2022/08/08 05:37:40;;;;;;;8.82;4.97;;;;;;;;;;5071729;28;20024;-71
2022/08/08 05:40:06;;;;;;;8.20;4.15;;;;;;;;;;5066393;28;20106;-72
2022/08/08 05:42:40;;;;;;;9.23;5.50;;;;;;;;;;5069109;28;20426;-71
2022/08/08 05:45:09;;;;;;;10.45;4.88;;;;;;;;;;5077708;28;20046;-71
2022/08/08 05:47:37;;;;;;;9.52;4.43;;;;;;;;;;5067943;28;20020;-69
2022/08/08 05:50:06;;;;;;;8.95;4.57;;;;;;;;;;5071716;28;20150;-70
2022/08/08 05:52:34;;;;;;;10.23;5.72;;;;;;;;;;5070562;28;20027;-70
2022/08/08 05:55:01;;;;;;;13.75;5.80;;;;;;;;;;5076111;28;20044;-71
2022/08/08 05:57:28;;;;;;;13.00;6.25;;;;;;;;;;5070300;28;20029;-71
2022/08/08 05:59:57;;;;;;;12.10;6.30;;;;;;;;;;5074036;28;20013;-71
2022/08/08 06:05:21;;;;;;;10.32;5.60;;;;;;;;;;5071504;28;20119;-71
2022/08/08 06:07:48;;;;;;;11.02;5.72;;;;;;;;;;5067502;28;20028;-71
2022/08/08 06:10:15;;;;;;;9.88;6.07;;;;;;;;;;5068331;28;20064;-71
2022/08/08 06:12:42;;;;;;;9.88;6.28;;;;;;;;;;5077727;28;20557;-71
2022/08/08 06:15:10;;;;;;;13.93;6.00;;;;;;;;;;5068747;28;20044;-71
2022/08/08 06:17:39;;;;;;;9.77;6.15;;;;;;;;;;5066536;28;20028;-70
2022/08/08 06:20:10;;;;;;;9.23;5.43;;;;;;;;;;5066904;28;20317;-70
2022/08/08 06:22:36;;;;;;;11.05;6.28;;;;;;;;;;5063152;28;20365;-71
2022/08/08 06:25:09;;;;;;;8.65;5.53;;;;;;;;;;5064030;28;20020;-70
2022/08/08 06:27:46;;;;;;;13.40;6.53;;;;;;;;;;5065224;28;20023;-69
2022/08/08 06:30:14;;;;;;;17.80;7.97;;;;;;;;;;5051885;28;20119;-69
2022/08/08 06:32:44;;;;;;;14.68;7.97;;;;;;;;;;5069255;28;20028;-70
2022/08/08 06:35:13;;;;;;;15.95;8.45;;;;;;;;;;5059811;28;20043;-69
2022/08/08 06:37:46;;;;;;;17.67;9.05;;;;;;;;;;5056363;28;20036;-75
2022/08/08 06:40:14;;;;;;;21.60;9.20;;;;;;;;;;5073165;28;20123;-72
2022/08/08 06:42:46;;;;;;;13.35;7.13;;;;;;;;;;5072523;28;20043;-71
2022/08/08 06:45:12;;;;;;;19.10;6.65;;;;;;;;;;5070686;28;20415;-71
2022/08/08 06:47:38;;;;;;;11.50;6.85;;;;;;;;;;5070563;28;20032;-71
2022/08/08 06:50:05;;;;;;;17.85;7.03;;;;;;;;;;5055674;28;20028;-71
2022/08/08 06:52:32;;;;;;;12.70;7.10;;;;;;;;;;5061781;28;20119;-71
2022/08/08 06:55:00;;;;;;;19.58;6.55;;;;;;;;;;5075204;28;20032;-71
2022/08/08 06:57:26;;;;;;;12.90;7.65;;;;;;;;;;5060558;28;20039;-71
2022/08/08 06:59:53;;;;;;;11.85;6.68;;;;;;;;;;5073505;28;20056;-71
2022/08/08 07:02:24;;;;;;;14.75;6.82;;;;;;;;;;5077094;28;20028;-71
2022/08/08 07:04:53;;;;;;;;;;;;;;;;;;5077527;28;20044;-71
2022/08/08 07:07:34;;;;;;;12.88;6.30;;;;;;;;;;5077818;28;19915;-71
2022/08/08 07:10:02;;;;;;;16.77;7.28;;;;;;;;;;5064433;28;20140;-71
2022/08/08 07:12:41;;;;;;;16.50;8.67;;;;;;;;;;5065917;28;20024;-71
2022/08/08 07:15:09;;;;;;;12.88;6.30;;;;;;;;;;5081446;28;20063;-71
2022/08/08 07:17:46;;;;;;;10.50;6.53;;;;;;;;;;5074587;28;20093;-71
2022/08/08 07:20:17;;;;;;;17.40;6.45;;;;;;;;;;5084977;28;20055;-71
2022/08/08 07:22:53;;;;;;;10.27;6.63;;;;;;;;;;5071947;28;20024;-71
2022/08/08 07:25:20;;;;;;;9.40;6.20;;;;;;;;;;5088982;28;20020;-71
2022/08/08 07:27:49;;;;;;;10.38;6.63;;;;;;;;;;5070681;28;20047;-71
2022/08/08 07:30:16;;;;;;;12.63;6.25;;;;;;;;;;5087464;28;20027;-71
2022/08/08 07:32:43;;;;;;;16.33;6.25;;;;;;;;;;5072896;28;20047;-71
2022/08/08 07:35:13;;;;;;;14.95;6.15;;;;;;;;;;5072634;28;20051;-71
2022/08/08 07:37:43;;;;;;;19.20;6.40;;;;;;;;;;5074904;28;20028;-71
2022/08/08 07:40:10;;;;;;;17.80;5.70;;;;;;;;;;5058504;28;20134;-72
2022/08/08 07:42:37;;;;;;;10.75;6.03;;;;;;;;;;5068800;28;20023;-69
2022/08/08 07:45:07;;;;;;;10.38;5.43;;;;;;;;;;5073712;28;20028;-71
2022/08/08 07:47:38;;;;;;;10.57;5.72;;;;;;;;;;5074375;28;20028;-71
2022/08/08 07:50:05;;;;;;;12.85;5.28;;;;;;;;;;5071542;28;20143;-71
2022/08/08 07:52:31;;;;;;;14.18;5.50;;;;;;;;;;5070674;28;20035;-71
2022/08/08 07:55:02;;;;;;;14.15;5.32;;;;;;;;;;5068275;28;20510;-72
2022/08/08 07:57:46;;;;;;;9.98;5.47;;;;;;;;;;5095612;28;20077;-72
2022/08/08 08:00:14;;;;;;;11.95;5.45;;;;;;;;;;5084682;28;20411;-71
2022/08/08 08:02:56;;;;;;;12.07;5.53;;;;;;;;;;5063189;28;20488;-72
2022/08/08 08:05:26;;;;;;;7.43;4.40;;;;;;;;;;5052811;28;20043;-71
2022/08/08 08:07:54;;;;;;;12.52;4.80;;;;;;;;;;5071891;28;20028;-71
2022/08/08 08:10:27;;;;;;;8.50;4.80;;;;;;;;;;5064648;28;20043;-71
2022/08/08 08:12:57;;;;;;;10.45;4.18;;;;;;;;;;5070951;28;20072;-72
2022/08/08 08:15:27;;;;;;;6.47;3.95;;;;;;;;;;5092001;28;20448;-72
2022/08/08 08:17:57;;;;;;;8.60;3.67;;;;;;;;;;5090281;28;20026;-72
2022/08/08 08:20:27;;;;;;;6.53;3.70;;;;;;;;;;5086321;28;20403;-72
2022/08/08 08:22:53;;;;;;;6.80;3.67;;;;;;;;;;5071584;28;20115;-72
2022/08/08 08:25:20;;;;;;;10.70;4.15;;;;;;;;;;5075716;28;20400;-72
2022/08/08 08:27:46;;;;;;;5.43;3.30;;;;;;;;;;5086500;28;20032;-72
2022/08/08 08:30:13;;;;;;;9.27;3.15;;;;;;;;;;5074883;28;20039;-73
2022/08/08 08:32:39;;;;;;;6.57;3.58;;;;;;;;;;5089857;28;20047;-73
2022/08/08 08:35:11;;;;;;;7.18;2.95;;;;;;;;;;5072551;28;20032;-72
2022/08/08 08:37:38;;;;;;;4.70;3.10;;;;;;;;;;5071071;28;20035;-71
2022/08/08 08:40:05;;;;;;;6.57;3.08;;;;;;;;;;5065893;28;20032;-72
2022/08/08 08:42:36;;;;;;;11.40;2.97;;;;;;;;;;5062417;28;20043;-72
2022/08/08 08:45:07;;;;;;;10.20;2.85;;;;;;;;;;5070558;28;20134;-72
2022/08/08 08:47:34;;;;;;;5.60;2.88;;;;;;;;;;5066616;28;20071;-73
2022/08/08 08:50:00;;;;;;;8.25;3.28;;;;;;;;;;5064558;28;20676;-73
2022/08/08 08:52:26;;;;;;;7.22;3.40;;;;;;;;;;5080820;28;20564;-73
2022/08/08 08:54:56;;;;;;;6.70;3.33;;;;;;;;;;5061683;28;20032;-73
2022/08/08 08:57:22;;;;;;;9.38;2.95;;;;;;;;;;5061559;28;20729;-73
2022/08/08 08:59:50;;;;;;;9.95;2.88;;;;;;;;;;5079344;28;20055;-74
2022/08/08 09:02:19;;;;;;;3.38;2.35;;;;;;;;;;5072181;28;20055;-73
2022/08/08 09:04:46;;;;;;;7.57;2.70;;;;;;;;;;5076911;28;20485;-73
2022/08/08 09:07:18;;;;;;;8.73;2.97;;;;;;;;;;5064521;28;20036;-73
2022/08/08 09:09:53;;;;;;;9.35;2.65;;;;;;;;;;5079043;28;20016;-73
2022/08/08 09:12:25;;;;;;;8.90;2.75;;;;;;;;;;5071083;28;20039;-73
2022/08/08 09:14:53;;;;;;;5.63;3.13;;;;;;;;;;5032561;28;1309662;-73
2022/08/08 09:17:23;;;;;;;6.13;2.70;;;;;;;;;;5068804;28;20027;-73
2022/08/08 09:19:52;;;;;;;3.88;2.53;;;;;;;;;;5072207;28;20028;-73
2022/08/08 09:22:21;;;;;;;7.53;2.70;;;;;;;;;;5089371;28;20040;-73
2022/08/08 09:24:48;;;;;;;6.32;2.90;;;;;;;;;;5072606;28;20131;-74
2022/08/08 09:27:14;;;;;;;7.25;2.72;;;;;;;;;;5074007;28;20408;-73
2022/08/08 09:29:50;;;;;;;3.25;2.58;;;;;;;;;;5073425;28;20020;-74
2022/08/08 09:32:25;;;;;;;4.50;2.80;;;;;;;;;;5068409;28;20020;-73
2022/08/08 09:34:53;;;;;;;5.40;2.50;;;;;;;;;;5077114;28;20032;-73
2022/08/08 09:37:25;;;;;;;7.90;3.08;;;;;;;;;;5077067;28;20130;-74
2022/08/08 09:39:54;;;;;;;6.68;3.10;;;;;;;;;;5077370;28;20040;-73
2022/08/08 09:42:22;;;;;;;7.20;2.70;;;;;;;;;;5073140;28;20395;-73
2022/08/08 09:45:08;;;;;;;8.10;2.42;;;;;;;;;;5089556;28;20395;-73
2022/08/08 09:47:36;;;;;;;5.15;2.30;;;;;;;;;;5085101;28;20070;-72
2022/08/08 09:50:04;;;;;;;9.60;3.03;;;;;;;;;;5081744;28;20043;-73
2022/08/08 09:52:31;;;;;;;7.35;2.63;;;;;;;;;;5091341;28;20016;-73
2022/08/08 09:54:57;;;;;;;6.75;3.00;;;;;;;;;;5084753;28;20032;-74
2022/08/08 09:57:34;;;;;;;7.88;2.65;;;;;;;;;;5075470;28;20046;-72
2022/08/08 10:00:01;;;;;;;6.47;2.70;;;;;;;;;;5091258;28;20415;-72
2022/08/08 10:02:33;;;;;;;5.47;2.30;;;;;;;;;;5066082;28;20089;-72
2022/08/08 10:05:03;;;;;;;6.57;2.50;;;;;;;;;;5084898;28;20380;-72
2022/08/08 10:07:30;;;;;;;4.47;2.42;;;;;;;;;;5070500;28;20503;-73
2022/08/08 10:09:56;;;;;;;5.43;2.00;;;;;;;;;;5089305;28;20065;-72
2022/08/08 10:12:31;;;;;;;5.70;2.20;;;;;;;;;;5091127;28;20073;-73
2022/08/08 10:15:00;;;;;;;9.77;2.17;;;;;;;;;;5083221;28;20076;-73
2022/08/08 10:17:27;;;;;;;3.65;1.85;;;;;;;;;;5085979;28;20060;-73
2022/08/08 10:19:57;;;;;;;8.32;2.25;;;;;;;;;;5085047;28;20027;-73
2022/08/08 10:22:23;;;;;;;5.25;2.35;;;;;;;;;;5086604;28;20051;-73
2022/08/08 10:24:52;;;;;;;5.32;2.20;;;;;;;;;;5084081;28;20427;-73
2022/08/08 10:27:19;;;;;;;5.30;2.17;;;;;;;;;;5084867;28;20077;-73
2022/08/08 10:30:05;;;;;;;4.63;2.33;;;;;;;;;;5092055;28;20102;-74
2022/08/08 10:32:35;;;;;;;5.93;2.13;;;;;;;;;;5080755;28;20050;-74
2022/08/08 10:35:02;;;;;;;5.35;2.20;;;;;;;;;;5082931;28;20032;-73
2022/08/08 10:37:30;;;;;;;6.18;2.20;;;;;;;;;;5080352;28;20016;-77
2022/08/08 10:39:57;;;;;;;4.68;2.45;;;;;;;;;;5089804;28;20040;-74
2022/08/08 10:42:24;;;;;;;6.38;2.35;;;;;;;;;;5079505;28;20036;-74
2022/08/08 10:44:58;;;;;;;7.20;2.70;;;;;;;;;;5089598;28;20024;-72
2022/08/08 10:47:24;;;;;;;4.97;2.70;;;;;;;;;;5069148;28;20020;-71
2022/08/08 10:49:51;;;;;;;5.63;2.65;;;;;;;;;;5086129;28;20035;-72
2022/08/08 10:52:30;;;;;;;5.07;2.70;;;;;;;;;;5083425;28;20024;-72
2022/08/08 10:54:57;;;;;;;3.60;2.08;;;;;;;;;;5082604;28;20035;-72
2022/08/08 10:57:23;;;;;;;3.10;2.45;;;;;;;;;;5083296;28;20114;-72
2022/08/08 10:59:57;;;;;;;10.38;3.33;;;;;;;;;;5091014;28;20031;-72
2022/08/08 11:02:27;;;;;;;5.05;2.97;;;;;;;;;;5078483;28;20047;-73
2022/08/08 11:04:56;;;;;;;6.68;2.92;;;;;;;;;;5079897;28;20571;-72
2022/08/08 11:07:26;;;;;;;5.80;2.25;;;;;;;;;;5075896;28;20099;-72
2022/08/08 11:09:52;;;;;;;6.72;2.67;;;;;;;;;;5085042;28;20043;-73
2022/08/08 11:12:18;;;;;;;5.47;2.80;;;;;;;;;;5075276;28;20038;-73
2022/08/08 11:14:49;;;;;;;6.07;2.63;;;;;;;;;;5075207;28;20091;-74
2022/08/08 11:17:16;;;;;;;9.13;2.72;;;;;;;;;;5080546;28;20981;-73
2022/08/08 11:19:43;;;;;;;8.57;3.13;;;;;;;;;;5077132;28;20036;-72
2022/08/08 11:22:13;;;;;;;6.22;2.80;;;;;;;;;;5074589;28;20508;-72
2022/08/08 11:24:40;;;;;;;7.75;3.10;;;;;;;;;;5078211;28;20069;-73
2022/08/08 11:27:07;;;;;;;9.10;3.10;;;;;;;;;;5080953;28;20016;-75
2022/08/08 11:29:34;;;;;;;7.72;3.55;;;;;;;;;;5078558;28;20034;-74
2022/08/08 11:32:02;;;;;;;8.57;3.38;;;;;;;;;;5080473;28;20120;-74
2022/08/08 11:34:32;;;;;;;4.47;2.92;;;;;;;;;;5085830;28;20023;-74
2022/08/08 11:37:00;;;;;;;4.95;3.00;;;;;;;;;;5069376;28;20035;-74
2022/08/08 11:39:27;;;;;;;4.70;2.70;;;;;;;;;;5085190;28;20089;-74
2022/08/08 11:41:53;;;;;;;5.38;2.95;;;;;;;;;;5076632;28;20114;-74
2022/08/08 11:44:19;;;;;;;7.93;2.58;;;;;;;;;;5078492;28;20085;-74
2022/08/08 11:46:46;;;;;;;7.22;3.10;;;;;;;;;;5079256;28;20088;-74
2022/08/08 11:49:12;;;;;;;5.70;2.83;;;;;;;;;;5080033;28;20028;-74
2022/08/08 11:51:39;;;;;;;8.25;3.08;;;;;;;;;;5076700;28;20024;-74
2022/08/08 11:54:06;;;;;;;4.78;2.75;;;;;;;;;;5076721;28;20480;-74
2022/08/08 11:56:33;;;;;;;8.65;3.90;;;;;;;;;;5081567;28;20078;-73
2022/08/08 11:59:09;;;;;;;7.28;2.80;;;;;;;;;;5079507;28;20032;-74
2022/08/08 12:01:36;;;;;;;10.15;3.50;;;;;;;;;;5079032;28;20074;-74
2022/08/08 12:04:03;;;;;;;6.65;2.97;;;;;;;;;;5084266;28;20024;-75
2022/08/08 12:06:30;;;;;;;4.85;3.05;;;;;;;;;;5085556;28;20028;-75
2022/08/08 12:09:09;;;;;;;4.85;2.72;;;;;;;;;;5069577;28;20936;-75
2022/08/08 12:11:39;;;;;;;7.38;3.20;;;;;;;;;;5090834;28;20085;-75
2022/08/08 12:14:05;;;;;;;5.95;2.70;;;;;;;;;;5089827;28;20024;-75
2022/08/08 12:16:32;;;;;;;7.93;3.47;;;;;;;;;;5087306;28;20093;-75
2022/08/08 12:19:00;;;;;;;5.05;3.13;;;;;;;;;;5086945;28;20064;-75
2022/08/08 12:21:27;;;;;;;7.63;3.40;;;;;;;;;;5082589;28;20373;-75
2022/08/08 12:24:06;;;;;;;3.45;2.78;;;;;;;;;;5084951;28;20391;-75
2022/08/08 12:26:52;;;;;;;8.80;3.10;;;;;;;;;;5080748;28;20024;-75
2022/08/08 12:29:19;;;;;;;6.65;2.80;;;;;;;;;;5083966;28;20545;-75
2022/08/08 12:31:46;;;;;;;4.35;3.08;;;;;;;;;;5076257;28;20048;-75
2022/08/08 12:34:12;;;;;;;6.15;3.25;;;;;;;;;;5079388;28;20082;-75
2022/08/08 12:36:42;;;;;;;6.03;3.00;;;;;;;;;;5080335;28;20751;-75
2022/08/08 12:39:08;;;;;;;4.53;2.50;;;;;;;;;;5081735;28;20089;-75
2022/08/08 12:41:35;;;;;;;8.77;3.53;;;;;;;;;;5063292;28;20028;-75
2022/08/08 12:44:05;;;;;;;7.30;3.42;;;;;;;;;;5081157;28;20067;-75
2022/08/08 12:46:31;;;;;;;5.63;3.00;;;;;;;;;;5080186;28;20051;-75
2022/08/08 12:49:00;;;;;;;3.60;2.90;;;;;;;;;;5083579;28;20024;-73
2022/08/08 12:51:26;;;;;;;8.98;3.00;;;;;;;;;;5083846;28;20031;-73
2022/08/08 12:53:56;;;;;;;7.32;3.05;;;;;;;;;;5092255;28;20027;-75
2022/08/08 12:56:31;;;;;;;7.93;3.33;;;;;;;;;;5083637;28;20058;-74
2022/08/08 12:58:58;;;;;;;5.13;2.72;;;;;;;;;;5083405;28;20446;-74
2022/08/08 13:01:36;;;;;;;5.90;3.55;;;;;;;;;;5087701;28;20028;-75
2022/08/08 13:04:17;;;;;;;3.85;2.85;;;;;;;;;;5081599;28;20037;-75
2022/08/08 13:06:53;;;;;;;6.07;3.38;;;;;;;;;;5084814;28;20560;-75
2022/08/08 13:09:38;;;;;;;4.30;2.58;;;;;;;;;;5063331;28;20069;-75
2022/08/08 13:12:15;;;;;;;10.45;2.70;;;;;;;;;;5087878;28;21232;-75
2022/08/08 13:14:48;;;;;;;3.90;2.60;;;;;;;;;;5086190;28;20120;-74
2022/08/08 13:17:15;;;;;;;4.35;2.67;;;;;;;;;;5077218;28;20429;-74
2022/08/08 13:19:42;;;;;;;5.53;2.92;;;;;;;;;;5084378;28;20050;-74
2022/08/08 13:22:08;;;;;;;4.95;3.15;;;;;;;;;;5096583;28;20036;-73
2022/08/08 13:24:38;;;;;;;6.63;3.28;;;;;;;;;;5092133;28;20030;-73
2022/08/08 13:27:08;;;;;;;5.00;3.10;;;;;;;;;;5092879;28;20112;-73
2022/08/08 13:29:36;;;;;;;6.82;3.28;;;;;;;;;;5090703;28;20016;-73
2022/08/08 13:32:03;;;;;;;6.55;2.80;;;;;;;;;;5087154;28;20027;-73
2022/08/08 13:34:30;;;;;;;5.03;2.70;;;;;;;;;;5087391;28;20028;-73
2022/08/08 13:36:56;;;;;;;5.25;3.00;;;;;;;;;;5082243;28;20487;-73
2022/08/08 13:39:23;;;;;;;6.28;2.28;;;;;;;;;;5087522;28;20403;-74
2022/08/08 13:41:53;;;;;;;3.90;2.60;;;;;;;;;;5074148;28;20442;-74
2022/08/08 13:44:20;;;;;;;6.55;2.83;;;;;;;;;;5091989;28;20093;-74
2022/08/08 13:46:54;;;;;;;4.78;3.05;;;;;;;;;;5090560;28;20081;-74
2022/08/08 13:49:22;;;;;;;6.30;3.40;;;;;;;;;;5072895;28;20024;-74
2022/08/08 13:52:14;;;;;;;5.25;2.72;;;;;;;;;;5094275;28;20028;-74
2022/08/08 13:54:44;;;;;;;7.32;3.22;;;;;;;;;;5085225;28;20044;-73
2022/08/08 13:57:12;;;;;;;6.68;2.83;;;;;;;;;;5090431;28;20056;-74
2022/08/08 13:59:38;;;;;;;9.10;2.60;;;;;;;;;;5088618;28;20083;-74
2022/08/08 14:02:13;;;;;;;6.40;2.80;;;;;;;;;;5085846;28;20020;-73
2022/08/08 14:04:39;;;;;;;6.35;2.67;;;;;;;;;;5089046;28;20068;-73
2022/08/08 14:07:05;;;;;;;5.22;2.38;;;;;;;;;;5088828;28;20451;-74
2022/08/08 14:09:39;;;;;;;4.35;2.20;;;;;;;;;;5090881;28;20107;-74
2022/08/08 14:12:06;;;;;;;6.60;2.40;;;;;;;;;;5088817;28;20480;-73
2022/08/08 14:14:39;;;;;;;6.93;2.78;;;;;;;;;;5089393;28;20044;-73
2022/08/08 14:17:06;;;;;;;10.25;2.72;;;;;;;;;;5091689;28;20161;-74
2022/08/08 14:19:37;;;;;;;4.22;2.28;;;;;;;;;;5089659;28;20393;-74
2022/08/08 14:22:21;;;;;;;7.57;2.42;;;;;;;;;;5090406;28;20086;-73
2022/08/08 14:24:52;;;;;;;6.32;2.80;;;;;;;;;;5089458;28;20038;-73
2022/08/08 14:27:26;;;;;;;5.32;2.83;;;;;;;;;;5091930;28;20028;-73
2022/08/08 14:29:54;;;;;;;5.50;2.28;;;;;;;;;;5078543;28;20039;-73
2022/08/08 14:32:20;;;;;;;6.57;2.70;;;;;;;;;;5088648;28;20024;-73
2022/08/08 14:34:50;;;;;;;5.53;2.80;;;;;;;;;;5091027;28;20070;-74
2022/08/08 14:37:17;;;;;;;8.20;2.33;;;;;;;;;;5092199;28;20369;-74
2022/08/08 14:39:48;;;;;;;3.25;2.20;;;;;;;;;;5093178;28;20035;-74
2022/08/08 14:42:15;;;;;;;4.80;2.85;;;;;;;;;;5089407;28;20049;-73
2022/08/08 14:44:41;;;;;;;6.38;2.90;;;;;;;;;;5088494;28;20073;-74
2022/08/08 14:47:11;;;;;;;4.28;2.10;;;;;;;;;;5090099;28;20028;-73
2022/08/08 14:49:39;;;;;;;8.80;2.78;;;;;;;;;;5091279;28;20050;-74
2022/08/08 14:52:08;;;;;;;5.78;2.63;;;;;;;;;;5089071;28;20048;-73
2022/08/08 14:54:44;;;;;;;5.53;2.72;;;;;;;;;;5088385;28;20438;-73
2022/08/08 14:57:10;;;;;;;6.82;2.92;;;;;;;;;;5085215;28;20035;-73
2022/08/08 14:59:36;;;;;;;5.82;2.78;;;;;;;;;;5091262;28;20035;-73
2022/08/08 15:02:04;;;;;;;6.13;2.88;;;;;;;;;;5088558;28;20039;-73
2022/08/08 15:04:31;;;;;;;5.63;2.53;;;;;;;;;;5091553;28;20035;-73
2022/08/08 15:06:57;;;;;;;4.55;2.33;;;;;;;;;;5090820;28;20035;-73
2022/08/08 15:09:23;;;;;;;4.72;2.20;;;;;;;;;;5087001;28;20027;-73